createdAt,value
2023-10-06T00:09:29.941Z,17.97
2023-10-06T00:24:32.744Z,17.90
2023-10-06T00:39:34.441Z,17.73
2023-10-06T00:54:36.220Z,17.61
2023-10-06T01:09:37.883Z,17.63
2023-10-06T01:24:39.608Z,17.48
2023-10-06T01:39:41.694Z,17.50
2023-10-06T01:54:46.452Z,17.49
2023-10-06T02:09:49.666Z,17.44
2023-10-06T02:24:51.338Z,17.54
2023-10-06T02:39:54.473Z,17.53
2023-10-06T02:55:05.436Z,17.52
2023-10-06T03:10:11.376Z,17.52
2023-10-06T03:25:18.263Z,17.53
2023-10-06T03:40:47.549Z,17.78
2023-10-06T03:55:49.251Z,17.67
2023-10-06T04:11:01.401Z,17.55
2023-10-06T04:26:03.158Z,17.56
2023-10-06T04:41:08.500Z,17.35
2023-10-06T04:56:10.353Z,17.30
2023-10-06T05:11:12.748Z,17.33
2023-10-06T05:26:16.480Z,17.51
2023-10-06T05:41:18.905Z,17.69
2023-10-06T05:56:21.429Z,17.77
2023-10-06T06:11:23.211Z,18.02
2023-10-06T06:26:26.027Z,18.09
2023-10-06T06:41:28.708Z,18.58
2023-10-06T06:56:31.409Z,18.75
2023-10-06T07:11:35.549Z,19.24
2023-10-06T07:26:38.211Z,20.32
2023-10-06T07:41:39.941Z,20.69
2023-10-06T07:56:43.537Z,20.99
2023-10-06T08:11:46.568Z,21.30
2023-10-06T08:26:50.115Z,21.20
2023-10-06T08:41:55.884Z,21.78
2023-10-06T08:56:57.605Z,21.44
2023-10-06T09:11:59.905Z,21.66
2023-10-06T09:27:19.223Z,21.76
2023-10-06T09:42:21.354Z,21.82
2023-10-06T09:57:23.419Z,21.85
2023-10-06T10:12:49.391Z,21.58
2023-10-06T10:28:18.433Z,21.43
2023-10-06T10:43:22.103Z,21.50
2023-10-06T10:58:45.482Z,21.58
2023-10-06T11:14:06.759Z,21.72
2023-10-06T11:29:08.724Z,22.05
2023-10-06T11:44:10.596Z,22.20
2023-10-06T11:59:20.582Z,21.66
2023-10-06T12:14:22.398Z,21.45
2023-10-06T12:29:24.174Z,21.40
2023-10-06T12:44:28.498Z,21.39
2023-10-06T12:59:33.847Z,21.67
2023-10-06T13:14:36.270Z,22.15
2023-10-06T13:29:41.835Z,21.99
2023-10-06T13:44:44.506Z,22.18
2023-10-06T13:59:47.942Z,21.69
2023-10-06T14:14:49.604Z,22.00
2023-10-06T14:29:52.429Z,22.11
2023-10-06T14:45:12.867Z,22.25
2023-10-06T15:00:15.471Z,22.04
2023-10-06T15:15:17.301Z,21.53
2023-10-06T15:30:19.044Z,21.05
2023-10-06T15:45:20.685Z,20.50
2023-10-06T16:00:24.184Z,20.68
2023-10-06T16:15:29.470Z,21.01
2023-10-06T16:30:31.219Z,21.06
2023-10-06T16:45:36.186Z,21.09
2023-10-06T17:00:39.105Z,21.07
2023-10-06T17:15:41.550Z,21.06
2023-10-06T17:30:43.212Z,20.35
2023-10-06T17:45:46.009Z,19.45
2023-10-06T18:00:48.808Z,18.91
2023-10-06T18:15:53.818Z,18.49
2023-10-06T18:30:56.791Z,18.28
2023-10-06T18:46:00.671Z,18.10
2023-10-06T19:01:05.155Z,17.80
2023-10-06T19:16:15.418Z,17.69
2023-10-06T19:31:18.001Z,17.55
2023-10-06T19:46:20.214Z,17.43
2023-10-06T20:01:25.312Z,17.26
2023-10-06T20:16:27.659Z,17.06
2023-10-06T20:31:30.519Z,16.87
2023-10-06T20:46:32.504Z,16.82
2023-10-06T21:01:34.405Z,16.75
2023-10-06T21:16:37.597Z,16.69
2023-10-06T21:31:40.158Z,16.48
2023-10-06T21:46:42.229Z,16.20
2023-10-06T22:01:44.216Z,16.25
2023-10-06T22:16:49.623Z,16.13
2023-10-06T22:31:51.718Z,16.00
2023-10-06T22:46:53.770Z,15.80
2023-10-06T23:01:55.652Z,15.75
2023-10-06T23:17:02.249Z,15.60
2023-10-06T23:32:04.934Z,15.53
2023-10-06T23:47:13.524Z,15.39
